Aérodrome :
LOGIN :

S'inscrire | Disclaimer

   EN    FR    IT 

 










Légende :    VFR   VFR Marginal   IFR   IFR Intensif   IFR Très Intensif
Visi : 
Plafond : 
>= 8 km
>= 3000ft
5 à 8 km
1000 à 3000 ft
1500m à 5 km
500 à 1000 ft
800 à 1500m
200 à 500 ft
< 800m
< 200 ft
Symboles :   Orages  Brouillard  Fortes neiges  Fortes précipitations  Vent > 20 kt
SIGMETs :   Divers  Orages  Givrage  Turbulence  Onde Orograph.  Cendres Volcan.






- Altitude de l'aérodrome : 90 ft
- Code IATA : NTE


LFRS - Nantes

DERNIER METAR :
  • 140130Z AUTO 18005KT 9999 SCT033/// BKN062/// BKN074/// ///TCU 04/04 Q0994 TEMPO 4000 SHRA

METARs EXPIRÉS :
  • 140100Z AUTO 18005KT 9999 FEW048/// SCT092/// ///CB 04/03 Q0994 TEMPO 4000 SHRA
  • 140030Z AUTO 22005KT 190V250 9999 -RA SCT028/// BKN038/// BKN052/// ///TCU 05/04 Q0995 TEMPO 4000 SHRA
  • 140000Z AUTO 22003KT 9999 FEW041/// SCT088/// ///TCU 04/04 Q0995 TEMPO 4000 SHRA
  • 132330Z AUTO 23004KT 9999 ///TCU 05/04 Q0995 TEMPO 4000 SHRA
  • 132300Z AUTO 22008KT 190V250 9999 SCT027/// BKN050/// BKN092/// ///TCU 05/05 Q0995 TEMPO 4000 SHRA BKN020TCU SCT030CB

TAF TAF LFRS
Valide du 14 à 00h jusqu'au 15 à 06h UTC


132300Z 1400/1506 VRB03KT 9999 SCT030
TEMPO 1400/1406 4000 SHRA BKN025TCU
PROB40
TEMPO 1414/1416 3000 SHRA BKN020TCU
BECMG 1500/1503 3000 BR
PROB30
TEMPO 1503/1506 0500 FG VV///
ATIS : +33 2 40 05 12 74



MET'MAP, la Météo Aéronautique d'un coup d'oeil ! - Copyright ORBIFLY Décembre 2007 - Disclaimer

ORBIFLY MET'MAP TEAM :

Programmation & Développement : Alexandra Zaïnal
Conception & Développement : Baudouin d'Aumeries
Co-Programmation & Développement : Marc-Olivier Méhu
Soutien technique & logistique : Manuel Goepfert

Contact : metmap@orbifly.com




SOURCES & CREDITS :

   NOAA